Graham, Kentucky
Current Conditions -  °F | °C
As of 9:15 AM on Wednesday 26 Nov 2014 (Local Time) from K2I0 Reporting Station
Haze Haze  
Wind Chill: 33°   Ceiling: Unl
Heat Index: 33°   Visibility: 5mi
Dew Point: 31°   Wind: 0mph
Humidity: 93%   Direction: NA
Pressure: 30.15"   Gusts: NA
Location:  37.25°N, 87.28°W
Report Text: K2I0 261515Z AUTO 00000KT 5SM BR SCT004 00/M01 A3015 RMK AO2 T00041006
Loading
Personal Weather Stations






























Interactive Weather Map New forecast layout! Learn more

10-Day Weather Forecast

Advertisements
Track Severe Weather on mobile